Happy Valley, Nevada
Current Conditions -  °F | °C
As of 5:55 PM on Saturday 22 Nov 2014 (Local Time) from KRNO Reporting Station
Overcast Overcast  
Wind Chill: 42°   Ceiling: 6500
Heat Index: 48°   Visibility: 10mi
Dew Point: 27°   Wind: 16mph
Humidity: 44%   Direction: 300°WNW
Pressure: 30.12"   Gusts: 23mph
Location:  39.5386°N, 119.749°W
Report Text: KRNO 230155Z 30014G20KT 10SM SCT050 BKN065 BKN180 OVC220 09/M03 A3012 RMK AO2 SLP179 T00891028
Loading
Personal Weather Stations






























Interactive Weather Map New forecast layout! Learn more

10-Day Weather Forecast

Advertisements
Track Severe Weather on mobile